sensor_id;sensor_type;location;lat;lon;timestamp;P1;durP1;ratioP1;P2;durP2;ratioP2
18505;SDS011;9382;53.242;10.438;2023-06-26T00:01:45;10.77;;;9.63;;
18505;SDS011;9382;53.242;10.438;2023-06-26T00:04:11;10.33;;;9.23;;
18505;SDS011;9382;53.242;10.438;2023-06-26T00:06:39;10.23;;;9.23;;
18505;SDS011;9382;53.242;10.438;2023-06-26T00:09:06;11.10;;;9.50;;
18505;SDS011;9382;53.242;10.438;2023-06-26T00:11:33;10.77;;;9.63;;
18505;SDS011;9382;53.242;10.438;2023-06-26T00:13:59;10.67;;;9.43;;
18505;SDS011;9382;53.242;10.438;2023-06-26T00:16:27;10.93;;;9.33;;
18505;SDS011;9382;53.242;10.438;2023-06-26T00:18:56;11.43;;;9.37;;
18505;SDS011;9382;53.242;10.438;2023-06-26T00:21:23;10.07;;;9.07;;
18505;SDS011;9382;53.242;10.438;2023-06-26T00:23:50;10.53;;;9.43;;
18505;SDS011;9382;53.242;10.438;2023-06-26T00:26:17;10.03;;;8.83;;
18505;SDS011;9382;53.242;10.438;2023-06-26T00:28:43;10.53;;;9.43;;
18505;SDS011;9382;53.242;10.438;2023-06-26T00:31:10;11.13;;;9.70;;
18505;SDS011;9382;53.242;10.438;2023-06-26T00:33:38;11.57;;;9.60;;
18505;SDS011;9382;53.242;10.438;2023-06-26T00:36:05;10.77;;;9.17;;
18505;SDS011;9382;53.242;10.438;2023-06-26T00:38:31;10.77;;;9.77;;
18505;SDS011;9382;53.242;10.438;2023-06-26T00:40:58;10.17;;;9.17;;
18505;SDS011;9382;53.242;10.438;2023-06-26T00:43:24;10.27;;;9.20;;
18505;SDS011;9382;53.242;10.438;2023-06-26T00:45:51;12.60;;;9.80;;
18505;SDS011;9382;53.242;10.438;2023-06-26T00:48:18;12.03;;;9.13;;
18505;SDS011;9382;53.242;10.438;2023-06-26T00:50:46;13.07;;;9.20;;
18505;SDS011;9382;53.242;10.438;2023-06-26T00:53:13;11.80;;;8.93;;
18505;SDS011;9382;53.242;10.438;2023-06-26T00:55:40;12.50;;;9.73;;
18505;SDS011;9382;53.242;10.438;2023-06-26T00:58:06;10.13;;;9.07;;
18505;SDS011;9382;53.242;10.438;2023-06-26T01:00:33;10.63;;;9.47;;
18505;SDS011;9382;53.242;10.438;2023-06-26T01:03:00;10.07;;;8.53;;
18505;SDS011;9382;53.242;10.438;2023-06-26T01:05:26;10.10;;;9.10;;
18505;SDS011;9382;53.242;10.438;2023-06-26T01:07:55;11.07;;;9.43;;
18505;SDS011;9382;53.242;10.438;2023-06-26T01:10:23;10.10;;;9.10;;
18505;SDS011;9382;53.242;10.438;2023-06-26T01:12:52;9.63;;;8.50;;
18505;SDS011;9382;53.242;10.438;2023-06-26T01:15:19;10.20;;;9.20;;
18505;SDS011;9382;53.242;10.438;2023-06-26T01:17:46;9.80;;;8.80;;
18505;SDS011;9382;53.242;10.438;2023-06-26T01:20:13;10.57;;;9.40;;
18505;SDS011;9382;53.242;10.438;2023-06-26T01:22:43;12.40;;;9.10;;
18505;SDS011;9382;53.242;10.438;2023-06-26T01:25:27;10.53;;;8.57;;
18505;SDS011;9382;53.242;10.438;2023-06-26T01:28:04;12.20;;;8.70;;
18505;SDS011;9382;53.242;10.438;2023-06-26T01:30:32;9.73;;;8.73;;
18505;SDS011;9382;53.242;10.438;2023-06-26T01:33:01;9.63;;;8.50;;
18505;SDS011;9382;53.242;10.438;2023-06-26T01:35:29;10.83;;;9.37;;
18505;SDS011;9382;53.242;10.438;2023-06-26T01:38:10;10.27;;;8.60;;
18505;SDS011;9382;53.242;10.438;2023-06-26T01:40:38;10.67;;;8.97;;
18505;SDS011;9382;53.242;10.438;2023-06-26T01:43:06;11.33;;;8.73;;
18505;SDS011;9382;53.242;10.438;2023-06-26T01:45:38;12.10;;;9.07;;
18505;SDS011;9382;53.242;10.438;2023-06-26T01:48:05;10.50;;;9.07;;
18505;SDS011;9382;53.242;10.438;2023-06-26T01:50:34;9.53;;;8.63;;
18505;SDS011;9382;53.242;10.438;2023-06-26T01:53:04;10.23;;;9.20;;
18505;SDS011;9382;53.242;10.438;2023-06-26T01:55:37;10.27;;;9.20;;
18505;SDS011;9382;53.242;10.438;2023-06-26T01:58:09;10.60;;;9.23;;
18505;SDS011;9382;53.242;10.438;2023-06-26T02:00:36;12.37;;;9.40;;
18505;SDS011;9382;53.242;10.438;2023-06-26T02:03:03;10.33;;;8.40;;
18505;SDS011;9382;53.242;10.438;2023-06-26T02:05:31;14.87;;;9.10;;
18505;SDS011;9382;53.242;10.438;2023-06-26T02:07:58;10.00;;;8.43;;
18505;SDS011;9382;53.242;10.438;2023-06-26T02:10:26;11.50;;;8.80;;
18505;SDS011;9382;53.242;10.438;2023-06-26T02:12:52;11.27;;;9.07;;
18505;SDS011;9382;53.242;10.438;2023-06-26T02:15:20;11.20;;;8.87;;
18505;SDS011;9382;53.242;10.438;2023-06-26T02:17:47;11.93;;;8.67;;
18505;SDS011;9382;53.242;10.438;2023-06-26T02:20:14;10.23;;;8.50;;
18505;SDS011;9382;53.242;10.438;2023-06-26T02:22:41;10.67;;;8.60;;
18505;SDS011;9382;53.242;10.438;2023-06-26T02:25:08;11.27;;;8.53;;
18505;SDS011;9382;53.242;10.438;2023-06-26T02:27:37;10.53;;;8.83;;
18505;SDS011;9382;53.242;10.438;2023-06-26T02:30:04;10.07;;;8.97;;
18505;SDS011;9382;53.242;10.438;2023-06-26T02:32:33;12.87;;;9.00;;
18505;SDS011;9382;53.242;10.438;2023-06-26T02:34:59;18.17;;;8.60;;
18505;SDS011;9382;53.242;10.438;2023-06-26T02:37:26;9.57;;;8.47;;
18505;SDS011;9382;53.242;10.438;2023-06-26T02:39:53;10.07;;;8.83;;
18505;SDS011;9382;53.242;10.438;2023-06-26T02:42:19;11.40;;;9.10;;
18505;SDS011;9382;53.242;10.438;2023-06-26T02:44:46;10.00;;;8.90;;
18505;SDS011;9382;53.242;10.438;2023-06-26T02:47:12;10.73;;;8.43;;
18505;SDS011;9382;53.242;10.438;2023-06-26T02:49:41;10.23;;;8.50;;
18505;SDS011;9382;53.242;10.438;2023-06-26T02:52:08;10.20;;;8.27;;
18505;SDS011;9382;53.242;10.438;2023-06-26T02:54:34;9.80;;;8.67;;
18505;SDS011;9382;53.242;10.438;2023-06-26T02:57:01;15.33;;;8.43;;
18505;SDS011;9382;53.242;10.438;2023-06-26T02:59:27;11.93;;;9.00;;
18505;SDS011;9382;53.242;10.438;2023-06-26T03:01:54;9.97;;;8.97;;
18505;SDS011;9382;53.242;10.438;2023-06-26T03:04:21;10.87;;;9.20;;
18505;SDS011;9382;53.242;10.438;2023-06-26T03:06:49;10.20;;;9.10;;
18505;SDS011;9382;53.242;10.438;2023-06-26T03:09:16;9.83;;;8.83;;
18505;SDS011;9382;53.242;10.438;2023-06-26T03:11:43;9.90;;;8.63;;
18505;SDS011;9382;53.242;10.438;2023-06-26T03:14:09;11.80;;;8.80;;
18505;SDS011;9382;53.242;10.438;2023-06-26T03:16:36;10.03;;;8.27;;
18505;SDS011;9382;53.242;10.438;2023-06-26T03:19:02;11.47;;;9.33;;
18505;SDS011;9382;53.242;10.438;2023-06-26T03:21:29;11.37;;;8.80;;
18505;SDS011;9382;53.242;10.438;2023-06-26T03:23:57;9.67;;;8.63;;
18505;SDS011;9382;53.242;10.438;2023-06-26T03:26:24;10.97;;;9.20;;
18505;SDS011;9382;53.242;10.438;2023-06-26T03:28:52;9.37;;;8.37;;
18505;SDS011;9382;53.242;10.438;2023-06-26T03:31:19;11.97;;;9.60;;
18505;SDS011;9382;53.242;10.438;2023-06-26T03:33:45;10.23;;;8.90;;
18505;SDS011;9382;53.242;10.438;2023-06-26T03:36:12;11.03;;;9.27;;
18505;SDS011;9382;53.242;10.438;2023-06-26T03:38:39;9.73;;;8.57;;
18505;SDS011;9382;53.242;10.438;2023-06-26T03:41:07;9.83;;;8.80;;
18505;SDS011;9382;53.242;10.438;2023-06-26T03:43:34;11.93;;;9.20;;
18505;SDS011;9382;53.242;10.438;2023-06-26T03:46:00;10.80;;;8.90;;
18505;SDS011;9382;53.242;10.438;2023-06-26T03:48:27;9.70;;;8.70;;
18505;SDS011;9382;53.242;10.438;2023-06-26T03:50:53;10.50;;;8.53;;
18505;SDS011;9382;53.242;10.438;2023-06-26T03:53:20;12.73;;;9.23;;
18505;SDS011;9382;53.242;10.438;2023-06-26T03:55:47;10.30;;;8.67;;
18505;SDS011;9382;53.242;10.438;2023-06-26T03:58:15;12.40;;;9.30;;
18505;SDS011;9382;53.242;10.438;2023-06-26T04:00:41;10.47;;;8.60;;
18505;SDS011;9382;53.242;10.438;2023-06-26T04:03:08;12.97;;;9.30;;
18505;SDS011;9382;53.242;10.438;2023-06-26T04:05:36;9.67;;;8.30;;
18505;SDS011;9382;53.242;10.438;2023-06-26T04:08:02;10.17;;;9.07;;
18505;SDS011;9382;53.242;10.438;2023-06-26T04:10:29;10.77;;;8.83;;
18505;SDS011;9382;53.242;10.438;2023-06-26T04:12:56;10.13;;;8.27;;
18505;SDS011;9382;53.242;10.438;2023-06-26T04:15:24;12.63;;;9.57;;
18505;SDS011;9382;53.242;10.438;2023-06-26T04:17:50;10.00;;;8.93;;
18505;SDS011;9382;53.242;10.438;2023-06-26T04:20:17;10.40;;;8.80;;
18505;SDS011;9382;53.242;10.438;2023-06-26T04:22:44;9.70;;;8.53;;
18505;SDS011;9382;53.242;10.438;2023-06-26T04:25:10;10.67;;;9.00;;
18505;SDS011;9382;53.242;10.438;2023-06-26T04:27:37;11.17;;;9.43;;
18505;SDS011;9382;53.242;10.438;2023-06-26T04:30:05;11.57;;;8.77;;
18505;SDS011;9382;53.242;10.438;2023-06-26T04:32:34;11.90;;;9.10;;
18505;SDS011;9382;53.242;10.438;2023-06-26T04:35:00;11.00;;;8.87;;
18505;SDS011;9382;53.242;10.438;2023-06-26T04:37:28;11.20;;;8.80;;
18505;SDS011;9382;53.242;10.438;2023-06-26T04:39:54;10.87;;;9.47;;
18505;SDS011;9382;53.242;10.438;2023-06-26T04:42:21;11.63;;;9.43;;
18505;SDS011;9382;53.242;10.438;2023-06-26T04:44:47;11.57;;;8.83;;
18505;SDS011;9382;53.242;10.438;2023-06-26T04:47:14;12.13;;;8.90;;
18505;SDS011;9382;53.242;10.438;2023-06-26T04:49:42;10.47;;;8.87;;
18505;SDS011;9382;53.242;10.438;2023-06-26T04:52:10;11.70;;;8.40;;
18505;SDS011;9382;53.242;10.438;2023-06-26T04:54:38;11.70;;;9.17;;
18505;SDS011;9382;53.242;10.438;2023-06-26T04:57:05;11.13;;;8.43;;
18505;SDS011;9382;53.242;10.438;2023-06-26T04:59:31;11.67;;;8.80;;
18505;SDS011;9382;53.242;10.438;2023-06-26T05:01:58;9.60;;;8.50;;
18505;SDS011;9382;53.242;10.438;2023-06-26T05:04:24;11.53;;;8.70;;
18505;SDS011;9382;53.242;10.438;2023-06-26T05:06:52;9.87;;;8.40;;
18505;SDS011;9382;53.242;10.438;2023-06-26T05:09:19;8.50;;;7.70;;
18505;SDS011;9382;53.242;10.438;2023-06-26T05:11:46;10.73;;;8.23;;
18505;SDS011;9382;53.242;10.438;2023-06-26T05:14:12;11.73;;;8.33;;
18505;SDS011;9382;53.242;10.438;2023-06-26T05:16:39;9.90;;;8.10;;
18505;SDS011;9382;53.242;10.438;2023-06-26T05:19:05;11.73;;;8.03;;
18505;SDS011;9382;53.242;10.438;2023-06-26T05:21:32;10.67;;;7.67;;
18505;SDS011;9382;53.242;10.438;2023-06-26T05:24:01;8.67;;;7.77;;
18505;SDS011;9382;53.242;10.438;2023-06-26T05:26:29;9.20;;;7.37;;
18505;SDS011;9382;53.242;10.438;2023-06-26T05:28:56;9.13;;;7.60;;
18505;SDS011;9382;53.242;10.438;2023-06-26T05:31:24;8.93;;;7.40;;
18505;SDS011;9382;53.242;10.438;2023-06-26T05:33:50;10.07;;;8.03;;
18505;SDS011;9382;53.242;10.438;2023-06-26T05:36:20;8.43;;;7.03;;
18505;SDS011;9382;53.242;10.438;2023-06-26T05:38:49;9.83;;;7.50;;
18505;SDS011;9382;53.242;10.438;2023-06-26T05:41:18;8.70;;;6.97;;
18505;SDS011;9382;53.242;10.438;2023-06-26T05:43:45;9.20;;;7.03;;
18505;SDS011;9382;53.242;10.438;2023-06-26T05:46:11;10.63;;;7.27;;
18505;SDS011;9382;53.242;10.438;2023-06-26T05:48:38;8.63;;;6.77;;
18505;SDS011;9382;53.242;10.438;2023-06-26T05:51:06;9.73;;;7.23;;
18505;SDS011;9382;53.242;10.438;2023-06-26T05:53:33;7.50;;;6.70;;
18505;SDS011;9382;53.242;10.438;2023-06-26T05:56:00;8.43;;;6.73;;
18505;SDS011;9382;53.242;10.438;2023-06-26T05:58:29;8.63;;;6.77;;
18505;SDS011;9382;53.242;10.438;2023-06-26T06:00:56;8.73;;;6.40;;
18505;SDS011;9382;53.242;10.438;2023-06-26T06:03:23;11.97;;;6.97;;
18505;SDS011;9382;53.242;10.438;2023-06-26T06:05:49;10.63;;;6.63;;
18505;SDS011;9382;53.242;10.438;2023-06-26T06:08:16;9.57;;;6.87;;
18505;SDS011;9382;53.242;10.438;2023-06-26T06:10:43;9.63;;;6.77;;
18505;SDS011;9382;53.242;10.438;2023-06-26T06:13:10;11.20;;;6.50;;
18505;SDS011;9382;53.242;10.438;2023-06-26T06:15:38;9.23;;;6.90;;
18505;SDS011;9382;53.242;10.438;2023-06-26T06:18:04;9.60;;;7.07;;
18505;SDS011;9382;53.242;10.438;2023-06-26T06:20:31;8.03;;;7.20;;
18505;SDS011;9382;53.242;10.438;2023-06-26T06:22:57;7.30;;;6.27;;
18505;SDS011;9382;53.242;10.438;2023-06-26T06:25:24;8.40;;;6.63;;
18505;SDS011;9382;53.242;10.438;2023-06-26T06:27:51;7.73;;;6.73;;
18505;SDS011;9382;53.242;10.438;2023-06-26T06:30:17;8.93;;;6.40;;
18505;SDS011;9382;53.242;10.438;2023-06-26T06:32:45;9.03;;;6.80;;
18505;SDS011;9382;53.242;10.438;2023-06-26T06:35:15;9.87;;;7.07;;
18505;SDS011;9382;53.242;10.438;2023-06-26T06:37:42;7.63;;;6.50;;
18505;SDS011;9382;53.242;10.438;2023-06-26T06:40:09;10.77;;;6.77;;
18505;SDS011;9382;53.242;10.438;2023-06-26T06:42:36;7.83;;;6.40;;
18505;SDS011;9382;53.242;10.438;2023-06-26T06:45:03;8.87;;;6.80;;
18505;SDS011;9382;53.242;10.438;2023-06-26T06:47:31;11.43;;;6.73;;
18505;SDS011;9382;53.242;10.438;2023-06-26T06:49:59;13.87;;;6.80;;
18505;SDS011;9382;53.242;10.438;2023-06-26T06:52:32;8.10;;;6.23;;
18505;SDS011;9382;53.242;10.438;2023-06-26T06:55:00;8.07;;;6.27;;
18505;SDS011;9382;53.242;10.438;2023-06-26T06:57:30;9.17;;;6.47;;
18505;SDS011;9382;53.242;10.438;2023-06-26T07:00:00;8.60;;;6.60;;
18505;SDS011;9382;53.242;10.438;2023-06-26T07:02:27;6.63;;;5.90;;
18505;SDS011;9382;53.242;10.438;2023-06-26T07:04:54;8.93;;;6.30;;
18505;SDS011;9382;53.242;10.438;2023-06-26T07:07:22;9.00;;;6.10;;
18505;SDS011;9382;53.242;10.438;2023-06-26T07:09:49;9.10;;;6.03;;
18505;SDS011;9382;53.242;10.438;2023-06-26T07:12:15;8.40;;;6.73;;
18505;SDS011;9382;53.242;10.438;2023-06-26T07:14:42;8.10;;;6.90;;
18505;SDS011;9382;53.242;10.438;2023-06-26T07:17:08;8.93;;;6.00;;
18505;SDS011;9382;53.242;10.438;2023-06-26T07:19:35;10.13;;;6.70;;
18505;SDS011;9382;53.242;10.438;2023-06-26T07:22:02;8.00;;;6.03;;
18505;SDS011;9382;53.242;10.438;2023-06-26T07:24:30;7.73;;;6.20;;
18505;SDS011;9382;53.242;10.438;2023-06-26T07:26:57;8.93;;;6.80;;
18505;SDS011;9382;53.242;10.438;2023-06-26T07:29:25;7.70;;;6.20;;
18505;SDS011;9382;53.242;10.438;2023-06-26T07:31:52;9.53;;;6.10;;
18505;SDS011;9382;53.242;10.438;2023-06-26T07:34:19;7.23;;;6.13;;
18505;SDS011;9382;53.242;10.438;2023-06-26T07:36:45;7.23;;;6.30;;
18505;SDS011;9382;53.242;10.438;2023-06-26T07:39:12;8.83;;;6.50;;
18505;SDS011;9382;53.242;10.438;2023-06-26T07:41:40;7.97;;;6.40;;
18505;SDS011;9382;53.242;10.438;2023-06-26T07:44:06;7.95;;;6.28;;
18505;SDS011;9382;53.242;10.438;2023-06-26T07:46:33;8.07;;;6.30;;
18505;SDS011;9382;53.242;10.438;2023-06-26T07:49:00;9.90;;;6.40;;
18505;SDS011;9382;53.242;10.438;2023-06-26T07:51:26;7.65;;;6.20;;
18505;SDS011;9382;53.242;10.438;2023-06-26T07:53:53;8.80;;;6.07;;
18505;SDS011;9382;53.242;10.438;2023-06-26T07:56:20;7.18;;;5.97;;
18505;SDS011;9382;53.242;10.438;2023-06-26T07:58:48;10.02;;;6.00;;
18505;SDS011;9382;53.242;10.438;2023-06-26T08:01:14;15.38;;;6.63;;
18505;SDS011;9382;53.242;10.438;2023-06-26T08:03:41;7.03;;;6.07;;
18505;SDS011;9382;53.242;10.438;2023-06-26T08:06:08;8.57;;;6.22;;
18505;SDS011;9382;53.242;10.438;2023-06-26T08:08:34;8.60;;;5.80;;
18505;SDS011;9382;53.242;10.438;2023-06-26T08:11:01;6.40;;;5.60;;
18505;SDS011;9382;53.242;10.438;2023-06-26T08:13:27;9.75;;;6.20;;
18505;SDS011;9382;53.242;10.438;2023-06-26T08:15:55;7.05;;;6.20;;
18505;SDS011;9382;53.242;10.438;2023-06-26T08:18:22;6.38;;;5.70;;
18505;SDS011;9382;53.242;10.438;2023-06-26T08:20:49;7.97;;;5.88;;
18505;SDS011;9382;53.242;10.438;2023-06-26T08:23:15;6.47;;;5.88;;
18505;SDS011;9382;53.242;10.438;2023-06-26T08:25:42;8.23;;;6.38;;
18505;SDS011;9382;53.242;10.438;2023-06-26T08:28:09;8.48;;;6.85;;
18505;SDS011;9382;53.242;10.438;2023-06-26T08:30:35;7.80;;;6.63;;
18505;SDS011;9382;53.242;10.438;2023-06-26T08:33:03;7.15;;;6.28;;
18505;SDS011;9382;53.242;10.438;2023-06-26T08:35:30;8.57;;;6.28;;
18505;SDS011;9382;53.242;10.438;2023-06-26T08:37:56;6.85;;;6.15;;
18505;SDS011;9382;53.242;10.438;2023-06-26T08:40:23;7.10;;;6.32;;
18505;SDS011;9382;53.242;10.438;2023-06-26T08:42:51;8.38;;;6.55;;
18505;SDS011;9382;53.242;10.438;2023-06-26T08:45:18;7.03;;;6.25;;
18505;SDS011;9382;53.242;10.438;2023-06-26T08:47:45;9.00;;;6.60;;
18505;SDS011;9382;53.242;10.438;2023-06-26T08:50:19;7.35;;;6.60;;
18505;SDS011;9382;53.242;10.438;2023-06-26T08:52:52;6.97;;;5.97;;
18505;SDS011;9382;53.242;10.438;2023-06-26T08:55:22;9.05;;;6.28;;
18505;SDS011;9382;53.242;10.438;2023-06-26T08:57:51;8.95;;;6.93;;
18505;SDS011;9382;53.242;10.438;2023-06-26T09:00:19;8.07;;;6.40;;
18505;SDS011;9382;53.242;10.438;2023-06-26T09:02:46;8.68;;;6.90;;
18505;SDS011;9382;53.242;10.438;2023-06-26T09:05:13;7.10;;;6.40;;
18505;SDS011;9382;53.242;10.438;2023-06-26T09:07:41;7.15;;;6.45;;
18505;SDS011;9382;53.242;10.438;2023-06-26T09:10:08;7.68;;;6.30;;
18505;SDS011;9382;53.242;10.438;2023-06-26T09:12:35;7.72;;;6.97;;
18505;SDS011;9382;53.242;10.438;2023-06-26T09:15:03;9.73;;;6.82;;
18505;SDS011;9382;53.242;10.438;2023-06-26T09:17:33;6.75;;;6.13;;
18505;SDS011;9382;53.242;10.438;2023-06-26T09:20:04;7.57;;;6.43;;
18505;SDS011;9382;53.242;10.438;2023-06-26T09:22:33;7.18;;;6.45;;
18505;SDS011;9382;53.242;10.438;2023-06-26T09:25:03;7.30;;;6.45;;
18505;SDS011;9382;53.242;10.438;2023-06-26T09:27:31;7.63;;;6.32;;
18505;SDS011;9382;53.242;10.438;2023-06-26T09:29:58;7.15;;;6.38;;
18505;SDS011;9382;53.242;10.438;2023-06-26T09:32:25;7.30;;;6.47;;
18505;SDS011;9382;53.242;10.438;2023-06-26T09:34:53;9.43;;;7.22;;
18505;SDS011;9382;53.242;10.438;2023-06-26T09:37:21;7.88;;;6.20;;
18505;SDS011;9382;53.242;10.438;2023-06-26T09:39:48;8.10;;;6.50;;
18505;SDS011;9382;53.242;10.438;2023-06-26T09:42:16;8.43;;;6.47;;
18505;SDS011;9382;53.242;10.438;2023-06-26T09:44:43;7.28;;;6.38;;
18505;SDS011;9382;53.242;10.438;2023-06-26T09:47:11;7.53;;;6.50;;
18505;SDS011;9382;53.242;10.438;2023-06-26T09:49:40;9.60;;;6.63;;
18505;SDS011;9382;53.242;10.438;2023-06-26T09:52:07;8.35;;;6.75;;
18505;SDS011;9382;53.242;10.438;2023-06-26T09:54:34;8.02;;;7.10;;
18505;SDS011;9382;53.242;10.438;2023-06-26T09:57:08;7.88;;;6.60;;
18505;SDS011;9382;53.242;10.438;2023-06-26T09:59:36;7.65;;;6.85;;
18505;SDS011;9382;53.242;10.438;2023-06-26T10:02:03;11.98;;;7.85;;
18505;SDS011;9382;53.242;10.438;2023-06-26T10:04:30;10.40;;;7.50;;
18505;SDS011;9382;53.242;10.438;2023-06-26T10:06:57;11.65;;;7.95;;
18505;SDS011;9382;53.242;10.438;2023-06-26T10:09:26;8.57;;;7.78;;
18505;SDS011;9382;53.242;10.438;2023-06-26T10:11:55;9.68;;;7.50;;
18505;SDS011;9382;53.242;10.438;2023-06-26T10:14:25;8.85;;;7.93;;
18505;SDS011;9382;53.242;10.438;2023-06-26T10:16:55;10.73;;;7.60;;
18505;SDS011;9382;53.242;10.438;2023-06-26T10:19:24;10.38;;;8.02;;
18505;SDS011;9382;53.242;10.438;2023-06-26T10:21:53;12.02;;;8.52;;
18505;SDS011;9382;53.242;10.438;2023-06-26T10:24:21;9.65;;;7.47;;
18505;SDS011;9382;53.242;10.438;2023-06-26T10:26:49;10.77;;;8.05;;
18505;SDS011;9382;53.242;10.438;2023-06-26T10:29:18;9.85;;;7.70;;
18505;SDS011;9382;53.242;10.438;2023-06-26T10:31:49;11.00;;;8.52;;
18505;SDS011;9382;53.242;10.438;2023-06-26T10:34:19;14.18;;;8.55;;
18505;SDS011;9382;53.242;10.438;2023-06-26T10:36:47;10.88;;;9.02;;
18505;SDS011;9382;53.242;10.438;2023-06-26T10:39:24;11.82;;;8.75;;
18505;SDS011;9382;53.242;10.438;2023-06-26T10:41:51;12.07;;;9.05;;
18505;SDS011;9382;53.242;10.438;2023-06-26T10:44:21;12.18;;;8.98;;
18505;SDS011;9382;53.242;10.438;2023-06-26T10:46:49;11.35;;;8.40;;
18505;SDS011;9382;53.242;10.438;2023-06-26T10:49:17;12.15;;;8.25;;
18505;SDS011;9382;53.242;10.438;2023-06-26T10:51:46;8.75;;;6.68;;
18505;SDS011;9382;53.242;10.438;2023-06-26T10:54:14;11.20;;;6.10;;
18505;SDS011;9382;53.242;10.438;2023-06-26T10:56:42;7.07;;;5.07;;
18505;SDS011;9382;53.242;10.438;2023-06-26T10:59:13;10.40;;;5.97;;
18505;SDS011;9382;53.242;10.438;2023-06-26T11:01:42;10.03;;;5.30;;
18505;SDS011;9382;53.242;10.438;2023-06-26T11:04:09;12.53;;;6.17;;
18505;SDS011;9382;53.242;10.438;2023-06-26T11:06:38;9.47;;;5.73;;
18505;SDS011;9382;53.242;10.438;2023-06-26T11:09:09;12.07;;;6.17;;
18505;SDS011;9382;53.242;10.438;2023-06-26T11:11:54;8.73;;;6.00;;
18505;SDS011;9382;53.242;10.438;2023-06-26T11:14:29;10.17;;;6.77;;
18505;SDS011;9382;53.242;10.438;2023-06-26T11:16:57;10.90;;;6.70;;
18505;SDS011;9382;53.242;10.438;2023-06-26T11:19:25;10.30;;;7.33;;
18505;SDS011;9382;53.242;10.438;2023-06-26T11:21:58;10.67;;;7.90;;
18505;SDS011;9382;53.242;10.438;2023-06-26T11:24:28;13.93;;;8.57;;
18505;SDS011;9382;53.242;10.438;2023-06-26T11:26:55;12.40;;;9.10;;
18505;SDS011;9382;53.242;10.438;2023-06-26T11:29:26;18.77;;;10.37;;
18505;SDS011;9382;53.242;10.438;2023-06-26T11:31:58;14.80;;;10.63;;
18505;SDS011;9382;53.242;10.438;2023-06-26T11:34:28;14.20;;;10.67;;
18505;SDS011;9382;53.242;10.438;2023-06-26T11:36:56;15.87;;;11.93;;
18505;SDS011;9382;53.242;10.438;2023-06-26T11:39:24;18.53;;;12.00;;
18505;SDS011;9382;53.242;10.438;2023-06-26T11:41:51;17.40;;;11.30;;
18505;SDS011;9382;53.242;10.438;2023-06-26T11:44:18;18.60;;;12.60;;
18505;SDS011;9382;53.242;10.438;2023-06-26T11:46:45;18.63;;;12.80;;
18505;SDS011;9382;53.242;10.438;2023-06-26T11:49:14;24.83;;;12.70;;
18505;SDS011;9382;53.242;10.438;2023-06-26T11:51:42;16.50;;;11.60;;
18505;SDS011;9382;53.242;10.438;2023-06-26T11:54:09;18.13;;;11.63;;
18505;SDS011;9382;53.242;10.438;2023-06-26T11:56:38;17.30;;;12.50;;
18505;SDS011;9382;53.242;10.438;2023-06-26T11:59:05;20.27;;;12.53;;
18505;SDS011;9382;53.242;10.438;2023-06-26T12:01:34;17.47;;;12.10;;
18505;SDS011;9382;53.242;10.438;2023-06-26T12:04:02;15.90;;;12.53;;
18505;SDS011;9382;53.242;10.438;2023-06-26T12:06:31;17.80;;;11.37;;
18505;SDS011;9382;53.242;10.438;2023-06-26T12:09:00;16.13;;;11.00;;
18505;SDS011;9382;53.242;10.438;2023-06-26T12:11:30;13.93;;;10.30;;
18505;SDS011;9382;53.242;10.438;2023-06-26T12:13:59;14.70;;;10.73;;
18505;SDS011;9382;53.242;10.438;2023-06-26T12:16:26;16.70;;;9.13;;
18505;SDS011;9382;53.242;10.438;2023-06-26T12:18:58;12.17;;;7.93;;
18505;SDS011;9382;53.242;10.438;2023-06-26T12:21:28;9.47;;;7.47;;
18505;SDS011;9382;53.242;10.438;2023-06-26T12:24:12;11.33;;;6.23;;
18505;SDS011;9382;53.242;10.438;2023-06-26T12:26:41;11.90;;;5.63;;
18505;SDS011;9382;53.242;10.438;2023-06-26T12:29:10;11.87;;;5.13;;
18505;SDS011;9382;53.242;10.438;2023-06-26T12:31:39;12.57;;;6.10;;
18505;SDS011;9382;53.242;10.438;2023-06-26T12:34:08;14.17;;;6.27;;
18505;SDS011;9382;53.242;10.438;2023-06-26T12:36:39;11.03;;;5.10;;
18505;SDS011;9382;53.242;10.438;2023-06-26T12:39:08;14.47;;;5.00;;
18505;SDS011;9382;53.242;10.438;2023-06-26T12:41:36;10.63;;;5.00;;
18505;SDS011;9382;53.242;10.438;2023-06-26T12:44:17;8.47;;;4.03;;
18505;SDS011;9382;53.242;10.438;2023-06-26T12:46:45;9.07;;;4.37;;
18505;SDS011;9382;53.242;10.438;2023-06-26T12:49:13;5.67;;;3.70;;
18505;SDS011;9382;53.242;10.438;2023-06-26T12:51:40;4.20;;;2.90;;
18505;SDS011;9382;53.242;10.438;2023-06-26T12:54:07;6.43;;;2.80;;
18505;SDS011;9382;53.242;10.438;2023-06-26T12:56:34;3.73;;;2.70;;
18505;SDS011;9382;53.242;10.438;2023-06-26T12:59:01;8.63;;;3.00;;
18505;SDS011;9382;53.242;10.438;2023-06-26T13:01:29;8.53;;;2.80;;
18505;SDS011;9382;53.242;10.438;2023-06-26T13:03:56;6.30;;;2.37;;
18505;SDS011;9382;53.242;10.438;2023-06-26T13:06:22;5.90;;;2.57;;
18505;SDS011;9382;53.242;10.438;2023-06-26T13:08:49;7.40;;;2.20;;
18505;SDS011;9382;53.242;10.438;2023-06-26T13:11:16;7.17;;;2.40;;
18505;SDS011;9382;53.242;10.438;2023-06-26T13:13:42;4.93;;;2.60;;
18505;SDS011;9382;53.242;10.438;2023-06-26T13:16:09;4.10;;;2.17;;
18505;SDS011;9382;53.242;10.438;2023-06-26T13:18:37;3.80;;;2.30;;
18505;SDS011;9382;53.242;10.438;2023-06-26T13:21:03;4.57;;;2.22;;
18505;SDS011;9382;53.242;10.438;2023-06-26T13:23:30;4.53;;;2.22;;
18505;SDS011;9382;53.242;10.438;2023-06-26T13:25:57;3.60;;;2.07;;
18505;SDS011;9382;53.242;10.438;2023-06-26T13:28:23;7.20;;;2.28;;
18505;SDS011;9382;53.242;10.438;2023-06-26T13:30:50;5.90;;;2.20;;
18505;SDS011;9382;53.242;10.438;2023-06-26T13:33:17;5.32;;;2.40;;
18505;SDS011;9382;53.242;10.438;2023-06-26T13:35:44;4.97;;;2.35;;
18505;SDS011;9382;53.242;10.438;2023-06-26T13:38:11;5.63;;;2.30;;
18505;SDS011;9382;53.242;10.438;2023-06-26T13:40:38;6.20;;;2.53;;
18505;SDS011;9382;53.242;10.438;2023-06-26T13:43:04;4.97;;;2.53;;
18505;SDS011;9382;53.242;10.438;2023-06-26T13:45:31;5.45;;;2.08;;
18505;SDS011;9382;53.242;10.438;2023-06-26T13:47:58;5.50;;;2.22;;
18505;SDS011;9382;53.242;10.438;2023-06-26T13:50:25;6.25;;;2.63;;
18505;SDS011;9382;53.242;10.438;2023-06-26T13:52:53;7.18;;;2.30;;
18505;SDS011;9382;53.242;10.438;2023-06-26T13:55:19;4.47;;;2.40;;
18505;SDS011;9382;53.242;10.438;2023-06-26T13:57:47;6.80;;;2.50;;
18505;SDS011;9382;53.242;10.438;2023-06-26T14:00:14;5.30;;;2.30;;
18505;SDS011;9382;53.242;10.438;2023-06-26T14:02:45;3.65;;;2.03;;
18505;SDS011;9382;53.242;10.438;2023-06-26T14:05:11;5.78;;;2.20;;
18505;SDS011;9382;53.242;10.438;2023-06-26T14:07:38;5.57;;;2.20;;
18505;SDS011;9382;53.242;10.438;2023-06-26T14:10:07;5.53;;;2.25;;
18505;SDS011;9382;53.242;10.438;2023-06-26T14:12:34;6.45;;;2.72;;
18505;SDS011;9382;53.242;10.438;2023-06-26T14:15:00;5.25;;;2.20;;
18505;SDS011;9382;53.242;10.438;2023-06-26T14:17:28;4.35;;;2.30;;
18505;SDS011;9382;53.242;10.438;2023-06-26T14:19:55;7.28;;;2.20;;
18505;SDS011;9382;53.242;10.438;2023-06-26T14:22:21;2.92;;;2.15;;
18505;SDS011;9382;53.242;10.438;2023-06-26T14:24:48;6.32;;;2.40;;
18505;SDS011;9382;53.242;10.438;2023-06-26T14:27:16;4.75;;;2.67;;
18505;SDS011;9382;53.242;10.438;2023-06-26T14:29:43;6.47;;;2.10;;
18505;SDS011;9382;53.242;10.438;2023-06-26T14:32:10;6.30;;;2.10;;
18505;SDS011;9382;53.242;10.438;2023-06-26T14:34:37;5.80;;;2.30;;
18505;SDS011;9382;53.242;10.438;2023-06-26T14:37:05;5.80;;;2.20;;
18505;SDS011;9382;53.242;10.438;2023-06-26T14:39:32;4.43;;;2.30;;
18505;SDS011;9382;53.242;10.438;2023-06-26T14:41:58;6.07;;;2.10;;
18505;SDS011;9382;53.242;10.438;2023-06-26T14:44:26;6.20;;;2.30;;